Pagrindinis puslapis
METAR-TAF:

METAR-TAF

Oro uostai :

Sankt Galenas, Šveicarija

platuma: 47-29-06N, ilguma: 009-33-43E, Aukštis: 398 m

Dabartinis oras

Ataskaita buvo paskelbta 13 minutes, ne 08:20 UTC
Vėjas 2 kt iš Pietryčių
Temperatūra -3°C
Drėgmė 100%
Slėgis 1021 hPa
Matomumas 10 km arba daugiau
nėra debesų žemiau 1500 m ir nėra kamuolinių lietaus debesų

METAR: LSZR 190820Z 13002KT CAVOK M03/M03 Q1021 NOSIG RMK D

Laikas: 09:33 (08:33 UTC)

Prognozė

Ataskaita buvo paskelbta 3 valandos ir 8 minutes, ne 05:25 UTC
Prognozė galioja nuo 19 metu 06 UTC su 19 metu 15 UTC
Vėjas 3 kt nuo kintamojo kryptimis
Matomumas 10 km arba daugiau
nėra debesų žemiau 1500 m ir nėra kamuolinių lietaus debesų
Tapsmas
nuo 19 metu 12 UTC su 19 metu 15 UTC
Matomumas 10 km arba daugiau
Išsisklaidę debesys ne aukštis 8000 ft

TAF: LSZR 190525Z 1906/1915 VRB03KT CAVOK BECMG 1912/1915 9999 SCT080

Orai ataskaitas ir orų prognozės (METAR, TAF).

turimą stotys yra geltonos ir raudonos taškus žemėlapyje.

Perkelti pele per norėdami pamatyti stoties vardą.

Tada spustelėkite, norėdami matyti oro stebėjimo ir prognozės.

Norėdami pakeisti žemėlapį: spustelėkite ant žalios mygtukų su juodo kryžiaus žemyn,; žalią mygtuką su brūkšneliu, jei norite nutolinti; arba žalių rodyklių gretimoms žemėlapius.


METAR-TAF: